Hardin, MT (59034)

2:36 PM MDT on September 02, 2014 (GMT -0600)
RAWS LITTLE BIGHORN MT US | Change Station
CLOSE
Current Station
Personal Weather Station
Location: Crow Agency, MT
Elevation: 3196 ft
Nearby Weather Stations

Elev 3196 ft 45.57 °N, 107.44 °W | Updated 37 minutes ago

Clear
Clear
79 °F
Feels Like 79 °F
N
3
Wind Variable Wind from South
Gusts 10.0 mph

Today
High -- | Low -- °F
--% Chance of Precip.
Yesterday
High -- | Low -- °F
Precip. -- in
6:32 AM 7:46 PM
First Quarter, 54% visible
Pressure 29.78 in
Visibility 10.0 miles
Clouds Few 8000 ft
Few 14000 ft
Scattered Clouds 25000 ft
Heat Index 79 °F
Dew Point 44 °F
Humidity 29%
Rainfall 0.00 in
Snow Depth Not available.
UV 6 out of 12
Pollen 7.80 out of 12
Air Quality Not available.
Flu Activity Not available.
METAR KBIL 021953Z VRB05KT 10SM FEW080 FEW140 SCT250 23/04 A2985 RMK AO2 SLP085 T02280044

More Conditions Fewer Conditions

Pressure 29.78 in
Visibility 10.0 miles
Clouds Few 8000 ft
Few 14000 ft
Scattered Clouds 25000 ft
Heat Index 79 °F
Dew Point 44 °F
Humidity 29%
Rainfall 0.00 in
Snow Depth Not available.
UV 6 out of 12
Pollen 7.80 out of 12
Air Quality Not available.
Flu Activity Not available.
METAR KBIL 021953Z VRB05KT 10SM FEW080 FEW140 SCT250 23/04 A2985 RMK AO2 SLP085 T02280044

More Conditions Fewer Conditions

10-Day Weather Forecast

Almanac

Astronomy

Sep. 02, 2014 Rise Set
Actual Time 6:32 AM MDT 7:46 PM MDT
Civil Twilight 6:02 AM MDT 8:16 PM MDT
Nautical Twilight 5:25 AM MDT 8:53 PM MDT
Astronomical Twilight 4:46 AM MDT 9:32 PM MDT
Moon 2:41 PM MDT No Moon Set
Length of Visible Light 14h 14m
Length of Day
13h 13m
Tomorrow will be 3m 7s shorter.
First Quarter, 54% of the Moon is Illuminated
Today
First Quarter
Sep 8
Full
Sep 15
Last Quarter
Sep 24
New
Oct 1
First Quarter

Today's Extremes

State Highs State Lows

Community

WunderPhotos

Upload Photos

1,749,754 photos uploaded!

WunderBlogs® & News

By Dr. Jeff Masters
Director of Meteorology, Weather Underground
By Kari Strenfel
Meteorologist, Weather Underground
By Christopher C. Burt
Weather Historian, Weather Underground
September 2, 2014
September 2, 2014
September 2, 2014

Nearby

Snow Depth

Station Depth Elevation
Cole Creek 0 in 7850 ft
Crystal Lake 0 in 6050 ft
White Mill 1 in 8700 ft
Northeast Entrance 1 in 7350 ft
Monument Peak 0 in 8850 ft

Earthquake Activity

City Distance Mag. Time & Date
No recent earthquake activity has been reported nearby.
Minimum magnitude displayed is 2.5.

Coastal Water Temperatures

Place Temperature
No Stations Reporting

Nearby Weather Stations